This is the latest recevied weather packets stored in our database for station/object LRTM. If no packets are shown the sender has not sent any weather packets the latest 10 day(s).
| Time | Temp. | Humidity | Pressure | Rain* | Wind** | Luminosity | Snow |
|---|---|---|---|---|---|---|---|
| 1777268903 | 5° C | 61% | 1024 hPa | - | - | - | - |
| 1777268007 | 5° C | 61% | 1024 hPa | - | - | - | - |
| 1777267106 | 2.78° C | 65% | 1024 hPa | - | - | - | - |
| 1777266229 | 2.78° C | 65% | 1024 hPa | - | - | - | - |
| 1777265307 | 1.11° C | 81% | 1024 hPa | - | - | - | - |
| 1777264484 | 1.11° C | 81% | 1024 hPa | - | - | - | - |
| 1777263506 | 0° C | 75% | 1024 hPa | - | - | - | - |
| 1777262606 | 0° C | 75% | 1024 hPa | - | - | - | - |
| 1777261706 | 0° C | 75% | 1024 hPa | - | - | - | - |
| 1777260844 | 0° C | 75% | 1024 hPa | - | - | - | - |
| 1777259907 | 0° C | 75% | 1023 hPa | - | - | - | - |
| 1777259006 | 0° C | 75% | 1023 hPa | - | - | - | - |
| 1777258107 | 0° C | 75% | 1023 hPa | - | - | - | - |
| 1777257207 | 0° C | 75% | 1023 hPa | - | - | - | - |
| 1777256306 | 1.11° C | 70% | 1023 hPa | - | - | - | - |
| 1777255406 | 1.11° C | 70% | 1023 hPa | - | - | - | - |
| 1777254507 | 2.78° C | 60% | 1023 hPa | - | - | - | - |
| 1777253606 | 2.78° C | 60% | 1023 hPa | - | - | - | - |
| 1777252704 | 2.22° C | 65% | 1023 hPa | - | - | - | - |
| 1777251808 | 2.22° C | 65% | 1023 hPa | - | - | - | - |
| 1777250907 | 2.22° C | 65% | 1023 hPa | - | - | - | - |
| 1777250007 | 2.22° C | 65% | 1023 hPa | - | - | - | - |
| 1777249106 | 1.11° C | 70% | 1023 hPa | - | - | - | - |
| 1777248222 | 1.11° C | 70% | 1023 hPa | - | - | - | - |
| 1777247306 | 2.78° C | 60% | 1023 hPa | - | - | - | - |
* Rain since midnight (hover to see other rain measurements)
** Current wind speed in m/s (hover to see current wind gust speed)